LEAO

Ciudad Real Airport

Ciudad Real, Spain
TAF LEAO 171700Z 1718/1803 02004KT 9999 SCT040
Issued Valid From Valid To
Jan-17 @ 17:00 UTC
(7 hours ago)
Jan-17 @ 18:00 UTC
(6 hours ago)
Jan-18 @ 03:00 UTC
(in 3 hours)
Jan-17 @ 18:00 to Jan-18 @ 03:00
TAF LEAO 171700Z 1718/1803 02004KT 9999 SCT040
Wind Visibility Clouds
20° at 4 knots 10,000+ meters
  • Scattered at 4,000' AGL
TAF LEAO 171700Z 1718/1803 02004KT 9999 SCT040
Issued Jan-17 @ 17:00 UTC
(7 hours ago)
Valid From Jan-17 @ 18:00 UTC
(6 hours ago)
Valid To Jan-18 @ 03:00 UTC
(in 3 hours)
Jan-17 @ 18:00 - Jan-18 @ 03:00
Wind Visibility
20° at 4 knots 10,000+ meters
Clouds
  • Scattered at 4,000' AGL